Latest Weather Observations for Mount Gellibrand

IDV60801

Issued at 8:02 pm EDT Saturday 6 February 2016 (issued every 30 minutes, with the page automatically refreshed every 10 minutes)

About weather observations | Map of weather stations | Latest weather observations for VIC | Other Formats
Station Details ID: 090035 Name: MOUNT GELLIBRAND Lat: -38.23 Lon: 143.79 Height: 261.0 m
Data from the previous 72 hours. | See also: Recent months at Mount Gellibrand
Date/Time
EDT
Temp
°C
App
Temp
°C
Dew
Point
Rel
Hum
%
Delta-T
°C
Wind Press
QNH
hPa
Press
MSL
hPa
Rain
since 9 am
mm
Dir
 
Spd
km/h
Gust
km/h
Spd
kts
Gust
kts
06/08:00pm 24.4 21.5 12.4 47 7.0 SE 19 22 10 12 1015.2 1014.4 0.0
06/07:30pm 25.8 23.0 12.6 44 7.7 ESE 19 24 10 13 1014.9 1014.1 0.0
06/07:00pm 26.1 22.6 12.2 42 8.1 ESE 22 30 12 16 1014.6 1013.8 0.0
06/06:30pm 26.6 22.8 12.3 41 8.4 ESE 24 32 13 17 1014.5 1013.7 0.0
06/06:00pm 27.3 22.0 12.5 40 8.7 SE 32 39 17 21 1014.2 1013.4 0.0
06/05:30pm 28.4 22.6 12.7 38 9.3 ESE 35 41 19 22 1013.8 1013.0 0.0
06/05:00pm 31.7 30.4 12.5 31 11.5 NNE 11 24 6 13 1013.8 1013.0 0.0
06/04:30pm 32.8 30.2 7.6 21 14.0 NNW 11 20 6 11 1013.9 1013.1 0.0
06/04:00pm 31.5 29.0 6.5 21 13.6 WNW 9 20 5 11 1014.3 1013.5 0.0
06/03:30pm 32.1 27.8 7.0 21 13.8 WNW 19 32 10 17 1014.6 1013.8 0.0
06/03:00pm 31.3 28.3 7.7 23 13.1 WNW 13 28 7 15 1015.0 1014.2 0.0
06/02:30pm 30.7 27.3 7.8 24 12.7 WNW 15 28 8 15 1015.4 1014.6 0.0
06/02:00pm 31.2 28.6 9.4 26 12.4 W 13 24 7 13 1015.6 1014.9 0.0
06/01:30pm 30.2 27.3 9.7 28 11.7 WSW 15 28 8 15 1016.0 1015.2 0.0
06/01:00pm 29.8 25.6 9.9 29 11.3 W 22 33 12 18 1016.2 1015.4 0.0
06/12:30pm 28.5 24.3 9.7 31 10.6 W 22 35 12 19 1016.6 1015.8 0.0
06/12:00pm 28.2 23.4 10.4 33 10.1 WNW 26 35 14 19 1016.9 1016.1 0.0
06/11:30am 27.3 21.8 10.5 35 9.6 WNW 30 41 16 22 1016.9 1016.1 0.0
06/11:00am 26.1 20.6 10.7 38 8.7 NW 30 41 16 22 1017.1 1016.3 0.0
06/10:30am 25.4 19.1 11.2 41 8.1 NW 35 43 19 23 1017.2 1016.4 0.0
06/10:00am 22.4 19.6 13.2 56 5.3 NW 20 28 11 15 1017.6 1016.8 0.0
06/09:30am 20.4 18.5 12.9 62 4.3 NNW 15 20 8 11 1017.9 1017.1 0.0
06/09:00am 19.1 18.9 13.7 71 3.1 NNE 7 13 4 7 1017.8 1017.0 0.0
06/08:30am 17.3 17.3 15.1 87 1.3 ENE 9 11 5 6 1017.6 1016.8 0.0
06/08:00am 15.8 14.1 14.7 93 0.6 ENE 17 20 9 11 1017.5 1016.7 0.0
06/07:30am 14.7 12.1 13.9 95 0.5 NE 20 24 11 13 1017.4 1016.6 0.0
06/07:00am 14.7 10.9 13.7 94 0.6 E 26 28 14 15 1016.7 1015.9 0.0
06/06:30am 14.6 10.8 13.6 94 0.6 E 26 30 14 16 1016.4 1015.6 0.0
06/06:00am 14.6 10.8 13.6 94 0.6 E 26 30 14 16 1016.3 1015.5 0.0
06/05:30am 14.6 10.8 13.6 94 0.6 E 26 32 14 17 1016.3 1015.5 0.0
06/05:00am 14.5 10.9 13.2 92 0.7 ESE 24 28 13 15 1016.6 1015.8 0.0
06/04:30am 14.5 10.9 13.0 91 0.8 E 24 30 13 16 1016.7 1015.9 0.0
06/04:00am 14.6 10.6 13.0 90 0.9 ESE 26 30 14 16 1016.5 1015.7 0.0
06/03:30am 14.7 10.3 12.9 89 1.0 E 28 32 15 17 1016.6 1015.8 0.0
06/03:00am 14.8 10.8 13.0 89 1.0 E 26 30 14 16 1017.0 1016.2 0.0
06/02:30am 14.9 10.5 12.8 87 1.2 E 28 33 15 18 1017.0 1016.2 0.0
06/02:00am 15.1 11.1 13.0 87 1.2 E 26 32 14 17 1017.2 1016.4 0.0
06/01:30am 15.4 11.5 13.2 87 1.2 E 26 30 14 16 1017.7 1016.9 0.0
06/01:00am 15.5 12.0 13.3 87 1.2 E 24 28 13 15 1017.9 1017.1 0.0
06/12:30am 15.8 12.3 13.5 86 1.3 E 24 28 13 15 1018.1 1017.3 0.0
06/12:00am 15.8 12.3 13.3 85 1.4 ESE 24 28 13 15 1018.4 1017.6 0.0
 
Date/Time
EDT
Temp
°C
App
Temp
°C
Dew
Point
Rel
Hum
%
Delta-T
°C
Wind Press
QNH
hPa
Press
MSL
hPa
Rain
since 9 am
mm
Dir
 
Spd
km/h
Gust
km/h
Spd
kts
Gust
kts
05/11:30pm 16.2 12.0 13.5 84 1.5 ESE 28 33 15 18 1018.6 1017.8 0.0
05/11:00pm 16.4 12.2 13.5 83 1.6 ESE 28 33 15 18 1018.6 1017.8 0.0
05/10:30pm 16.6 11.9 13.3 81 1.9 ESE 30 37 16 20 1018.7 1017.9 0.0
05/10:00pm 16.7 12.0 13.2 80 2.0 ESE 30 33 16 18 1018.8 1018.0 0.0
05/09:30pm 17.0 12.3 13.1 78 2.2 ESE 30 39 16 21 1018.6 1017.8 0.0
05/09:00pm 17.4 12.0 12.9 75 2.5 ESE 33 43 18 23 1018.5 1017.7 0.0
05/08:30pm 18.1 12.3 12.8 71 3.0 ESE 35 44 19 24 1018.3 1017.5 0.0
05/08:00pm 19.1 12.9 12.8 67 3.6 ESE 37 43 20 23 1018.1 1017.3 0.0
05/07:30pm 20.0 14.0 13.2 65 3.9 ESE 37 46 20 25 1017.7 1016.9 0.0
05/07:00pm 20.4 14.1 13.4 64 4.0 ESE 39 46 21 25 1017.5 1016.7 0.0
05/06:30pm 21.1 15.0 13.0 60 4.7 E 37 46 20 25 1017.6 1016.8 0.0
05/06:00pm 21.8 15.6 12.6 56 5.3 ESE 37 44 20 24 1017.7 1016.9 0.0
05/05:30pm 22.3 15.7 12.5 53 5.6 E 39 50 21 27 1017.7 1016.9 0.0
05/05:00pm 23.5 17.3 12.5 50 6.3 ESE 37 44 20 24 1018.0 1017.2 0.0
05/04:30pm 23.2 17.3 12.5 51 6.2 ESE 35 50 19 27 1018.3 1017.5 0.0
05/04:00pm 23.0 17.0 12.0 50 6.3 ESE 35 48 19 26 1018.5 1017.7 0.0
05/03:30pm 23.2 17.2 12.2 50 6.3 E 35 46 19 25 1018.8 1018.0 0.0
05/03:00pm 23.1 16.6 11.8 49 6.4 ESE 37 46 20 25 1019.0 1018.3 0.0
05/02:30pm 23.6 17.8 11.6 47 6.8 E 33 46 18 25 1019.4 1018.7 0.0
05/02:00pm 23.0 17.5 11.7 49 6.4 E 32 43 17 23 1019.7 1019.0 0.0
05/01:30pm 23.0 18.0 12.3 51 6.2 E 30 43 16 23 1020.0 1019.2 0.0
05/01:00pm 23.4 18.0 12.1 49 6.5 E 32 41 17 22 1020.2 1019.4 0.0
05/12:30pm 22.6 17.5 12.0 51 6.1 E 30 39 16 21 1020.5 1019.7 0.0
05/12:00pm 22.9 18.2 11.9 50 6.3 E 28 43 15 23 1020.7 1019.9 0.0
05/11:32am 22.0 16.7 11.4 51 6.0 E 30 56 16 30 1020.9 1020.1 0.0
05/11:30am 21.8 16.6 11.5 52 5.8 E 30 39 16 21 1021.0 1020.2 0.0
05/11:00am 22.0 16.5 11.7 52 5.8 E 32 43 17 23 1021.0 1020.2 0.0
05/10:30am 21.0 15.3 11.3 54 5.4 E 32 43 17 23 1021.1 1020.3 0.0
05/10:00am 20.2 14.3 11.1 56 5.0 E 33 41 18 22 1021.1 1020.3 0.0
05/09:30am 19.7 14.2 11.7 60 4.5 E 32 41 17 22 1021.3 1020.5 0.0
05/09:00am 18.1 13.1 12.3 69 3.2 E 30 37 16 20 1021.3 1020.5 0.0
05/08:30am 17.6 13.8 13.7 78 2.2 E 26 35 14 19 1021.0 1020.2 0.0
05/08:00am 15.8 13.3 14.0 89 1.0 ESE 20 24 11 13 1020.9 1020.1 0.0
05/07:30am 14.4 12.0 12.8 90 0.9 SE 17 20 9 11 1020.6 1019.8 0.0
05/07:00am 14.0 11.0 12.6 91 0.8 SE 20 24 11 13 1020.4 1019.6 0.0
05/06:30am 13.6 9.8 12.5 93 0.6 SE 24 28 13 15 1020.1 1019.3 0.0
05/06:00am 13.4 9.9 12.3 93 0.6 SE 22 26 12 14 1019.7 1019.0 0.0
05/05:30am 12.9 8.8 11.6 92 0.7 SE 24 26 13 14 1019.4 1018.7 0.0
05/05:00am 13.0 10.3 11.7 92 0.7 SE 17 19 9 10 1019.4 1018.7 0.0
05/04:30am 13.1 10.4 11.7 91 0.8 SE 17 20 9 11 1019.4 1018.7 0.0
05/04:00am 13.0 9.3 11.4 90 0.9 SE 22 26 12 14 1019.2 1018.5 0.0
05/03:30am 12.3 8.7 10.5 89 0.9 SSE 20 24 11 13 1019.4 1018.7 0.0
05/03:00am 12.6 8.8 11.0 90 0.8 SSE 22 24 12 13 1019.6 1018.9 0.0
05/02:30am 12.6 9.0 10.7 88 1.0 SSE 20 24 11 13 1020.0 1019.2 0.0
05/02:00am 12.9 9.5 10.6 86 1.2 SE 19 22 10 12 1020.4 1019.6 0.0
05/01:30am 13.2 9.6 10.6 84 1.4 SE 20 26 11 14 1020.5 1019.7 0.0
05/01:00am 13.1 9.1 10.5 84 1.4 SE 22 28 12 15 1020.3 1019.5 0.0
05/12:30am 13.2 9.6 10.4 83 1.5 SE 20 22 11 12 1020.5 1019.7 0.0
05/12:00am 13.4 9.8 10.6 83 1.5 SE 20 26 11 14 1020.6 1019.8 0.0
 
Date/Time
EDT
Temp
°C
App
Temp
°C
Dew
Point
Rel
Hum
%
Delta-T
°C
Wind Press
QNH
hPa
Press
MSL
hPa
Rain
since 9 am
mm
Dir
 
Spd
km/h
Gust
km/h
Spd
kts
Gust
kts
04/11:30pm 12.9 9.4 10.1 83 1.5 SSE 19 22 10 12 1020.8 1020.0 0.0
04/11:00pm 13.1 9.6 10.1 82 1.6 SSE 19 22 10 12 1020.8 1020.0 0.0
04/10:30pm 13.6 9.5 10.2 80 1.8 SE 22 32 12 17 1020.8 1020.0 0.0
04/10:00pm 13.6 10.1 10.2 80 1.8 SE 19 24 10 13 1021.1 1020.3 0.0
04/09:30pm 13.8 10.1 10.2 79 1.9 SE 20 24 11 13 1020.9 1020.1 0.0
04/09:00pm 14.1 10.0 10.1 77 2.1 SE 22 30 12 16 1020.7 1019.9 0.0
04/08:30pm 14.7 9.7 9.7 72 2.6 SE 26 32 14 17 1020.6 1019.8 0.0
04/08:00pm 15.7 10.4 9.8 68 3.1 SE 28 35 15 19 1020.3 1019.5 0.0
04/07:30pm 16.7 11.8 9.9 64 3.6 SE 26 33 14 18 1020.0 1019.2 0.0
04/07:00pm 17.7 13.1 9.8 60 4.2 SE 24 33 13 18 1019.9 1019.1 0.0
04/06:30pm 18.3 12.9 9.6 57 4.6 SE 28 37 15 20 1019.6 1018.9 0.0
04/06:00pm 19.1 13.4 9.9 55 5.0 ESE 30 39 16 21 1019.5 1018.8 0.0
04/05:30pm 19.9 15.0 10.0 53 5.4 SE 26 37 14 20 1019.4 1018.7 0.0
04/05:00pm 20.8 16.3 10.0 50 5.9 ESE 24 32 13 17 1019.4 1018.7 0.0
04/04:30pm 21.0 16.5 9.9 49 6.1 SE 24 32 13 17 1019.6 1018.9 0.0
04/04:00pm 21.2 17.1 10.1 49 6.1 SE 22 35 12 19 1019.4 1018.7 0.0
04/03:30pm 21.9 18.0 9.4 45 6.8 SE 20 33 11 18 1019.6 1018.9 0.0
04/03:00pm 22.0 18.4 9.9 46 6.6 SSE 19 32 10 17 1019.5 1018.8 0.0
04/02:30pm 21.6 17.9 10.1 48 6.3 SSE 20 37 11 20 1019.7 1019.0 0.0
04/02:00pm 20.9 16.9 9.2 47 6.3 SE 20 32 11 17 1020.1 1019.3 0.0
04/01:30pm 20.9 17.6 9.5 48 6.2 SE 17 28 9 15 1020.3 1019.5 0.0
04/01:00pm 20.8 17.0 9.7 49 6.0 SSE 20 30 11 16 1020.3 1019.5 0.0
04/12:30pm 19.8 16.2 9.7 52 5.5 SE 19 30 10 16 1020.5 1019.7 0.0
04/12:00pm 19.6 15.8 9.8 53 5.3 SSE 20 30 11 16 1020.5 1019.7 0.0
04/11:30am 19.2 15.7 10.2 56 4.9 SE 19 28 10 15 1020.6 1019.8 0.0
04/11:00am 18.7 14.8 9.5 55 4.9 SE 20 32 11 17 1020.6 1019.8 0.0
04/10:30am 17.8 14.2 9.7 59 4.3 SE 19 26 10 14 1020.5 1019.7 0.0
04/10:00am 16.1 11.3 8.8 62 3.8 SE 24 35 13 19 1020.4 1019.6 0.0
04/09:30am 15.4 9.6 9.3 67 3.2 SSE 30 35 16 19 1020.0 1019.2 0.0
04/09:00am 14.9 11.2 10.1 73 2.5 SSE 20 26 11 14 1020.1 1019.3 0.0
04/08:30am 14.1 10.8 9.7 75 2.3 SSE 17 20 9 11 1019.9 1019.1 0.0
04/08:00am 13.4 10.9 9.8 79 1.9 SSE 13 17 7 9 1019.7 1019.0 0.0
04/07:30am 12.6 10.5 9.6 82 1.5 S 11 15 6 8 1019.4 1018.7 0.0
04/07:00am 12.5 10.3 9.3 81 1.6 S 11 15 6 8 1019.1 1018.4 0.0
04/06:30am 12.9 10.2 9.0 77 2.0 SSE 13 17 7 9 1018.8 1018.0 0.0
04/06:00am 12.9 11.1 9.4 79 1.8 S 9 13 5 7 1018.4 1017.6 0.0
04/05:30am 12.4 10.1 8.9 79 1.8 SSE 11 13 6 7 1017.7 1016.9 0.0
04/05:00am 12.7 10.8 9.0 78 1.9 SSE 9 11 5 6 1017.5 1016.7 0.0
04/04:30am 12.3 9.9 8.8 79 1.8 SSE 11 13 6 7 1017.3 1016.5 0.0
04/04:00am 12.1 9.4 8.8 80 1.7 SSE 13 17 7 9 1017.1 1016.3 0.0
04/03:30am 12.0 9.6 8.5 79 1.8 SSE 11 11 6 6 1017.3 1016.5 0.0
04/03:00am 12.2 9.8 8.5 78 1.9 SSE 11 13 6 7 1017.2 1016.4 0.0
04/02:30am 12.4 9.2 8.5 77 2.0 SSE 15 17 8 9 1017.1 1016.3 0.0
04/02:00am 12.5 8.0 8.4 76 2.1 SSE 22 28 12 15 1017.2 1016.4 0.0
04/01:30am 12.9 7.6 8.6 75 2.2 S 26 32 14 17 1017.0 1016.2 0.0
04/01:00am 13.3 8.9 8.8 74 2.3 S 22 28 12 15 1017.4 1016.6 0.0
04/12:30am 13.4 9.4 9.1 75 2.2 SSE 20 28 11 15 1017.4 1016.6 0.0
04/12:00am 13.8 9.4 9.0 73 2.5 SSE 22 30 12 16 1017.3 1016.5 0.0
 
Date/Time
EDT
Temp
°C
App
Temp
°C
Dew
Point
Rel
Hum
%
Delta-T
°C
Wind Press
QNH
hPa
Press
MSL
hPa
Rain
since 9 am
mm
Dir
 
Spd
km/h
Gust
km/h
Spd
kts
Gust
kts
03/11:30pm 13.8 9.1 9.3 74 2.3 S 24 28 13 15 1017.2 1016.4 0.0
03/11:00pm 14.5 9.5 9.7 73 2.5 S 26 35 14 19 1017.5 1016.7 0.0
03/10:30pm 14.5 10.0 9.9 74 2.4 S 24 30 13 16 1017.5 1016.7 0.0
03/10:00pm 14.9 11.0 9.5 70 2.8 S 20 26 11 14 1017.4 1016.6 0.0
03/09:30pm 15.0 10.5 8.7 66 3.2 S 22 28 12 15 1016.9 1016.1 0.0
03/09:00pm 15.1 8.8 8.8 66 3.2 S 32 41 17 22 1016.3 1015.5 0.0
03/08:30pm 15.4 8.4 8.4 63 3.6 S 35 44 19 24 1016.1 1015.3 0.0

Other Formats:

Comma delimited format used in spreadsheet applications
http://www.bom.gov.au/fwo/IDV60801/IDV60801.95845.axf

JavaScript Object Notation format (JSON) in row-major order
http://www.bom.gov.au/fwo/IDV60801/IDV60801.95845.json